createdAt,value
2018-06-30T00:00:00.243Z,80.6
2018-06-30T00:01:02.145Z,80.1
2018-06-30T00:02:04.337Z,80.0
2018-06-30T00:03:10.781Z,80.4
2018-06-30T00:04:16.952Z,81.1
2018-06-30T00:05:18.728Z,80.8
2018-06-30T00:06:24.641Z,80.9
2018-06-30T00:07:30.614Z,81.2
2018-06-30T00:08:36.400Z,80.9
2018-06-30T00:09:41.543Z,81.3
2018-06-30T00:10:42.991Z,81.4
2018-06-30T00:11:49.429Z,81.9
2018-06-30T00:12:56.064Z,82.3
2018-06-30T00:13:58.079Z,82.0
2018-06-30T00:15:04.451Z,82.5
2018-06-30T00:16:09.535Z,82.2
2018-06-30T00:17:11.482Z,82.7
2018-06-30T00:18:18.357Z,82.4
2018-06-30T00:19:20.306Z,81.8
2018-06-30T00:20:22.431Z,81.6
2018-06-30T00:21:24.316Z,81.4
2018-06-30T00:22:29.574Z,81.0
2018-06-30T00:23:31.390Z,81.4
2018-06-30T00:24:38.350Z,80.8
2018-06-30T00:25:45.054Z,81.0
2018-06-30T00:26:50.372Z,80.8
2018-06-30T00:27:57.243Z,81.2
2018-06-30T00:29:03.698Z,81.0
2018-06-30T00:30:05.340Z,81.9
2018-06-30T00:31:09.259Z,82.0
2018-06-30T00:32:12.812Z,82.5
2018-06-30T00:33:20.211Z,82.7
2018-06-30T00:34:21.919Z,83.5
2018-06-30T00:35:29.448Z,83.4
2018-06-30T00:36:32.936Z,84.1
2018-06-30T00:37:36.207Z,83.3
2018-06-30T00:38:43.048Z,83.2
2018-06-30T00:39:45.132Z,83.2
2018-06-30T00:40:51.724Z,83.4
2018-06-30T00:41:53.535Z,84.0
2018-06-30T00:42:55.777Z,83.5
2018-06-30T00:44:01.081Z,83.6
2018-06-30T00:45:05.616Z,83.3
2018-06-30T00:46:07.558Z,83.5
2018-06-30T00:47:10.823Z,84.0
2018-06-30T00:48:12.885Z,84.3
2018-06-30T00:49:17.193Z,84.0
2018-06-30T00:50:19.043Z,84.1
2018-06-30T00:51:24.106Z,84.0
2018-06-30T00:52:30.509Z,84.1
2018-06-30T00:53:32.558Z,84.0
2018-06-30T00:54:34.618Z,84.3
2018-06-30T00:55:36.857Z,84.1
2018-06-30T00:56:38.851Z,84.0
2018-06-30T00:57:40.815Z,84.3
2018-06-30T00:58:47.387Z,84.7
2018-06-30T00:59:55.199Z,84.5
2018-06-30T01:00:56.868Z,84.1
2018-06-30T01:01:59.083Z,84.1
2018-06-30T01:03:01.130Z,84.8
2018-06-30T01:04:09.408Z,85.3
2018-06-30T01:05:16.132Z,84.4
2018-06-30T01:06:17.977Z,83.9
2018-06-30T01:07:19.897Z,85.5
2018-06-30T01:08:22.112Z,84.5
2018-06-30T01:09:24.334Z,84.7
2018-06-30T01:10:31.507Z,85.2
2018-06-30T01:11:38.767Z,84.6
2018-06-30T01:12:40.529Z,84.4
2018-06-30T01:13:42.732Z,84.6
2018-06-30T01:14:44.779Z,84.6
2018-06-30T01:15:46.733Z,85.1
2018-06-30T01:16:53.823Z,85.1
2018-06-30T01:17:55.562Z,85.1
2018-06-30T01:19:02.444Z,85.0
2018-06-30T01:20:08.683Z,84.5
2018-06-30T01:21:10.549Z,85.0
2018-06-30T01:22:13.070Z,85.2
2018-06-30T01:23:17.645Z,84.9
2018-06-30T01:24:23.018Z,85.9
2018-06-30T01:25:26.193Z,85.7
2018-06-30T01:26:28.242Z,86.2
2018-06-30T01:27:30.436Z,86.2
2018-06-30T01:28:32.421Z,86.1
2018-06-30T01:29:34.527Z,86.0
2018-06-30T01:30:37.968Z,86.4
2018-06-30T01:31:40.328Z,85.8
2018-06-30T01:32:42.379Z,86.1
2018-06-30T01:33:45.629Z,86.6
2018-06-30T01:34:47.659Z,86.6
2018-06-30T01:35:54.546Z,86.8
2018-06-30T01:37:00.443Z,86.3
2018-06-30T01:38:02.419Z,86.7
2018-06-30T01:39:04.441Z,86.2
2018-06-30T01:40:06.364Z,86.1
2018-06-30T01:41:09.766Z,86.6
2018-06-30T01:42:13.710Z,86.3
2018-06-30T01:43:16.600Z,86.5
2018-06-30T01:44:20.435Z,86.4
2018-06-30T01:45:24.083Z,86.3
2018-06-30T01:46:27.891Z,86.4
2018-06-30T01:47:31.320Z,86.3
2018-06-30T01:48:35.647Z,87.2
2018-06-30T01:49:38.638Z,86.5
2018-06-30T01:50:43.259Z,86.6
2018-06-30T01:51:45.053Z,86.8
2018-06-30T01:52:51.817Z,87.2
2018-06-30T01:53:58.842Z,87.8
2018-06-30T01:55:00.445Z,87.5
2018-06-30T01:56:02.491Z,87.4
2018-06-30T01:57:04.746Z,87.7
2018-06-30T01:58:09.336Z,87.5
2018-06-30T01:59:14.992Z,87.6
2018-06-30T02:00:16.985Z,87.7
2018-06-30T02:01:19.185Z,87.9
2018-06-30T02:02:25.008Z,87.7
2018-06-30T02:03:30.505Z,88.3
2018-06-30T02:04:36.963Z,88.6
2018-06-30T02:05:43.477Z,88.4
2018-06-30T02:06:45.319Z,88.1
2018-06-30T02:07:47.430Z,88.6
2018-06-30T02:08:56.068Z,88.4
2018-06-30T02:10:04.597Z,88.3
2018-06-30T02:11:06.452Z,88.1
2018-06-30T02:12:08.633Z,88.6
2018-06-30T02:13:10.776Z,88.3
2018-06-30T02:14:19.456Z,88.6
2018-06-30T02:15:21.033Z,88.2
2018-06-30T02:16:27.722Z,88.2
2018-06-30T02:17:34.344Z,88.1
2018-06-30T02:18:39.693Z,88.7
2018-06-30T02:19:41.775Z,88.6
2018-06-30T02:20:47.595Z,88.3
2018-06-30T02:21:51.933Z,88.5
2018-06-30T02:22:53.665Z,88.7
2018-06-30T02:23:55.885Z,88.5
2018-06-30T02:25:02.247Z,88.9
2018-06-30T02:26:03.763Z,89.4
2018-06-30T02:27:09.370Z,89.5
2018-06-30T02:28:11.556Z,90.0
2018-06-30T02:29:18.501Z,89.9
2018-06-30T02:30:20.211Z,89.5
2018-06-30T02:31:22.547Z,89.9
2018-06-30T02:32:29.079Z,89.9
2018-06-30T02:33:34.885Z,89.8
2018-06-30T02:34:39.864Z,89.8
2018-06-30T02:35:44.938Z,89.5
2018-06-30T02:36:46.820Z,89.9
2018-06-30T02:37:54.251Z,89.3
2018-06-30T02:39:03.062Z,89.6
2018-06-30T02:40:04.892Z,89.1
2018-06-30T02:41:07.127Z,88.9
2018-06-30T02:42:10.272Z,89.1
2018-06-30T02:43:16.145Z,89.1
2018-06-30T02:44:17.961Z,88.9
2018-06-30T02:45:23.164Z,89.0
2018-06-30T02:46:24.776Z,88.8
2018-06-30T02:47:28.570Z,88.4
2018-06-30T02:48:34.442Z,88.1
2018-06-30T02:49:39.330Z,88.3
2018-06-30T02:50:45.032Z,88.0
2018-06-30T02:51:47.058Z,88.9
2018-06-30T02:52:48.944Z,89.1
2018-06-30T02:53:52.930Z,89.1
2018-06-30T02:54:54.686Z,89.9
2018-06-30T02:55:56.801Z,89.4
2018-06-30T02:57:03.224Z,89.7
2018-06-30T02:58:04.907Z,89.9
2018-06-30T02:59:09.336Z,89.9
2018-06-30T03:00:11.141Z,90.3
2018-06-30T03:01:16.990Z,91.0
2018-06-30T03:02:18.776Z,91.0
2018-06-30T03:03:20.913Z,90.7
2018-06-30T03:04:27.121Z,90.4
2018-06-30T03:05:33.418Z,90.7
2018-06-30T03:06:39.227Z,90.6
2018-06-30T03:07:42.056Z,90.1
2018-06-30T03:08:47.905Z,89.8
2018-06-30T03:09:49.829Z,89.9
2018-06-30T03:10:56.172Z,90.0
2018-06-30T03:11:57.936Z,89.7
2018-06-30T03:13:03.669Z,89.7
2018-06-30T03:14:09.258Z,89.5
2018-06-30T03:15:10.959Z,90.2
2018-06-30T03:16:15.425Z,90.3
2018-06-30T03:17:19.936Z,90.8
2018-06-30T03:18:25.497Z,90.5
2018-06-30T03:19:27.134Z,90.0
2018-06-30T03:20:30.816Z,90.2
2018-06-30T03:21:34.166Z,90.3
2018-06-30T03:22:36.244Z,90.6
2018-06-30T03:23:39.354Z,90.6
2018-06-30T03:24:41.486Z,90.8
2018-06-30T03:25:45.289Z,91.2
2018-06-30T03:26:47.059Z,90.8
2018-06-30T03:27:54.096Z,91.0
2018-06-30T03:28:55.723Z,91.2
2018-06-30T03:29:57.545Z,90.6
2018-06-30T03:31:02.567Z,90.5
2018-06-30T03:32:04.279Z,90.0
2018-06-30T03:33:06.102Z,90.4
2018-06-30T03:34:09.503Z,90.8
2018-06-30T03:35:11.330Z,90.6
2018-06-30T03:36:17.426Z,91.3
2018-06-30T03:37:19.245Z,91.7
2018-06-30T03:38:25.355Z,92.2
2018-06-30T03:39:27.084Z,91.8
2018-06-30T03:40:30.056Z,91.7
2018-06-30T03:41:32.090Z,92.1
2018-06-30T03:42:33.862Z,91.9
2018-06-30T03:43:39.410Z,92.2
2018-06-30T03:44:41.623Z,92.2
2018-06-30T03:45:43.480Z,92.4
2018-06-30T03:46:45.683Z,92.9
2018-06-30T03:47:47.833Z,92.4
2018-06-30T03:48:53.013Z,92.3
2018-06-30T03:49:55.016Z,92.5
2018-06-30T03:50:59.966Z,92.7
2018-06-30T03:52:03.604Z,92.5
2018-06-30T03:53:05.266Z,92.7
2018-06-30T03:54:07.151Z,92.6
2018-06-30T03:55:09.023Z,92.6
2018-06-30T03:56:11.197Z,92.5
2018-06-30T03:57:13.335Z,92.5
2018-06-30T03:58:15.487Z,92.4
2018-06-30T03:59:17.596Z,92.0
2018-06-30T04:00:21.789Z,92.2
2018-06-30T04:01:23.748Z,91.4
2018-06-30T04:02:30.103Z,91.5
2018-06-30T04:03:36.621Z,91.7
2018-06-30T04:04:39.692Z,91.1
2018-06-30T04:05:44.369Z,90.9
2018-06-30T04:06:46.098Z,91.5
2018-06-30T04:07:48.273Z,91.5
2018-06-30T04:08:49.992Z,91.8
2018-06-30T04:09:56.709Z,91.2
2018-06-30T04:10:59.851Z,90.7
2018-06-30T04:12:07.009Z,90.8
2018-06-30T04:13:08.642Z,91.3
2018-06-30T04:14:10.391Z,91.1
2018-06-30T04:15:13.339Z,90.9
2018-06-30T04:16:19.753Z,90.4
2018-06-30T04:17:21.526Z,90.7
2018-06-30T04:18:23.708Z,90.8
2018-06-30T04:19:25.851Z,90.9
2018-06-30T04:20:32.344Z,90.1
2018-06-30T04:21:34.507Z,90.9
2018-06-30T04:22:36.634Z,90.1
2018-06-30T04:23:38.377Z,90.3
2018-06-30T04:24:40.421Z,90.9
2018-06-30T04:25:42.624Z,90.7
2018-06-30T04:26:44.676Z,91.0
2018-06-30T04:27:50.908Z,92.3
2018-06-30T04:28:52.551Z,91.6
2018-06-30T04:29:54.735Z,92.0
2018-06-30T04:30:56.988Z,92.1
2018-06-30T04:32:03.360Z,92.1
2018-06-30T04:33:04.785Z,91.6
2018-06-30T04:34:06.989Z,91.4
2018-06-30T04:35:11.942Z,90.9
2018-06-30T04:36:16.674Z,90.5
2018-06-30T04:37:18.634Z,90.7
2018-06-30T04:38:20.820Z,91.3
2018-06-30T04:39:24.553Z,91.3
2018-06-30T04:40:26.732Z,91.2
2018-06-30T04:41:28.700Z,91.1
2018-06-30T04:42:30.776Z,90.7
2018-06-30T04:43:36.631Z,90.6
2018-06-30T04:44:42.961Z,90.9
2018-06-30T04:45:49.340Z,90.2
2018-06-30T04:46:51.139Z,89.9
2018-06-30T04:47:53.018Z,89.6
2018-06-30T04:48:55.201Z,89.4
2018-06-30T04:49:59.739Z,88.8
2018-06-30T04:51:04.552Z,88.7
2018-06-30T04:52:06.153Z,89.4
2018-06-30T04:53:12.463Z,88.7
2018-06-30T04:54:14.481Z,88.1
2018-06-30T04:55:16.577Z,87.8
2018-06-30T04:56:18.499Z,87.0
2018-06-30T04:57:20.427Z,86.8
2018-06-30T04:58:22.375Z,86.2
2018-06-30T04:59:25.952Z,86.1
2018-06-30T05:00:27.750Z,85.7
2018-06-30T05:01:31.893Z,84.3
2018-06-30T05:02:36.900Z,83.1
2018-06-30T05:03:42.137Z,83.0
2018-06-30T05:04:44.010Z,82.6
2018-06-30T05:05:47.129Z,81.4
2018-06-30T05:06:49.076Z,80.5
2018-06-30T05:07:51.226Z,80.1
2018-06-30T05:08:53.184Z,80.0
2018-06-30T05:09:55.343Z,79.6
2018-06-30T05:10:58.763Z,79.9
2018-06-30T05:12:04.627Z,79.4
2018-06-30T05:13:09.398Z,78.4
2018-06-30T05:14:16.732Z,77.7
2018-06-30T05:15:21.810Z,77.7
2018-06-30T05:16:28.019Z,77.5
2018-06-30T05:17:32.391Z,77.5
2018-06-30T05:18:40.135Z,77.3
2018-06-30T05:19:41.987Z,77.3
2018-06-30T05:20:47.315Z,77.1
2018-06-30T05:21:48.992Z,75.8
2018-06-30T05:22:51.850Z,75.9
2018-06-30T05:23:53.777Z,76.0
2018-06-30T05:24:57.023Z,75.9
2018-06-30T05:25:59.075Z,75.7
2018-06-30T05:27:02.241Z,75.6
2018-06-30T05:28:07.871Z,75.8
2018-06-30T05:29:10.234Z,75.6
2018-06-30T05:30:12.271Z,75.6
2018-06-30T05:31:14.358Z,75.6
2018-06-30T05:32:16.008Z,75.4
2018-06-30T05:33:17.836Z,75.2
2018-06-30T05:34:19.607Z,74.7
2018-06-30T05:35:21.508Z,74.2
2018-06-30T05:36:23.262Z,74.1
2018-06-30T05:37:25.169Z,73.2
2018-06-30T05:38:27.341Z,74.0
2018-06-30T05:39:29.939Z,72.9
2018-06-30T05:40:31.577Z,73.3
2018-06-30T05:41:33.439Z,74.1
2018-06-30T05:42:35.908Z,73.4
2018-06-30T05:43:37.724Z,72.9
2018-06-30T05:44:40.424Z,72.7
2018-06-30T05:45:42.148Z,73.1
2018-06-30T05:46:43.832Z,73.0
2018-06-30T05:47:45.643Z,73.0
2018-06-30T05:48:47.444Z,72.2
2018-06-30T05:49:49.086Z,71.8
2018-06-30T05:50:50.896Z,71.7
2018-06-30T05:51:52.569Z,71.5
2018-06-30T05:52:54.285Z,71.8
2018-06-30T05:53:56.077Z,71.1
2018-06-30T05:54:58.276Z,70.9
2018-06-30T05:56:00.619Z,71.0
2018-06-30T05:57:02.336Z,71.5
2018-06-30T05:58:04.734Z,70.3
2018-06-30T05:59:07.128Z,70.0
2018-06-30T06:00:08.911Z,69.7
2018-06-30T06:01:10.704Z,69.6
2018-06-30T06:02:13.154Z,69.4
2018-06-30T06:03:14.836Z,69.5
2018-06-30T06:04:16.735Z,68.0
2018-06-30T06:05:18.425Z,68.3
2018-06-30T06:06:20.170Z,67.6
2018-06-30T06:07:22.289Z,68.6
2018-06-30T06:08:24.309Z,69.1
2018-06-30T06:09:26.626Z,69.0
2018-06-30T06:10:28.676Z,69.2
2018-06-30T06:11:30.869Z,69.0
2018-06-30T06:12:32.632Z,68.8
2018-06-30T06:13:34.390Z,68.7
2018-06-30T06:14:36.438Z,68.7
2018-06-30T06:15:38.167Z,68.0
2018-06-30T06:16:40.040Z,67.6
2018-06-30T06:17:41.847Z,67.1
2018-06-30T06:18:43.556Z,67.2
2018-06-30T06:19:45.807Z,66.6
2018-06-30T06:20:47.930Z,66.6
2018-06-30T06:21:49.928Z,66.0
2018-06-30T06:22:52.095Z,65.4
2018-06-30T06:23:53.851Z,65.5
2018-06-30T06:24:55.508Z,65.4
2018-06-30T06:25:57.343Z,63.4
2018-06-30T06:26:59.117Z,63.5
2018-06-30T06:28:00.935Z,64.7
2018-06-30T06:29:02.727Z,64.1
2018-06-30T06:30:09.139Z,64.7
2018-06-30T06:31:12.237Z,65.5
2018-06-30T06:32:13.842Z,65.0
2018-06-30T06:33:22.476Z,64.9
2018-06-30T06:34:26.554Z,65.8
2018-06-30T06:35:32.735Z,64.1
2018-06-30T06:36:34.423Z,63.9
2018-06-30T06:37:36.299Z,63.9
2018-06-30T06:38:39.818Z,62.8
2018-06-30T06:39:44.282Z,62.7
2018-06-30T06:40:46.108Z,62.5
2018-06-30T06:41:52.021Z,62.9
2018-06-30T06:42:53.899Z,63.2
2018-06-30T06:43:58.016Z,63.7
2018-06-30T06:44:59.956Z,62.8
2018-06-30T06:46:01.784Z,62.4
2018-06-30T06:47:03.702Z,63.0
2018-06-30T06:48:09.651Z,61.6
2018-06-30T06:49:13.427Z,60.8
2018-06-30T06:50:15.149Z,60.7
2018-06-30T06:51:17.762Z,60.7
2018-06-30T06:52:20.913Z,60.7
2018-06-30T06:53:22.852Z,59.4
2018-06-30T06:54:24.611Z,59.2
2018-06-30T06:55:32.708Z,58.8
2018-06-30T06:56:34.412Z,59.3
2018-06-30T06:57:36.213Z,58.4
2018-06-30T06:58:38.072Z,59.3
2018-06-30T06:59:39.843Z,59.2
2018-06-30T07:00:41.696Z,60.7
2018-06-30T07:01:43.431Z,59.5
2018-06-30T07:02:45.307Z,58.8
2018-06-30T07:03:47.057Z,59.2
2018-06-30T07:04:48.811Z,59.6
2018-06-30T07:05:51.957Z,59.2
2018-06-30T07:06:54.709Z,58.0
2018-06-30T07:07:56.413Z,57.6
2018-06-30T07:08:58.091Z,56.7
2018-06-30T07:09:59.901Z,56.4
2018-06-30T07:11:01.694Z,57.1
2018-06-30T07:12:03.525Z,57.0
2018-06-30T07:13:05.436Z,57.6
2018-06-30T07:14:07.253Z,58.0
2018-06-30T07:15:08.991Z,57.9
2018-06-30T07:16:10.995Z,57.0
2018-06-30T07:17:13.720Z,58.1
2018-06-30T07:18:16.113Z,57.6
2018-06-30T07:19:18.006Z,57.9
2018-06-30T07:20:19.769Z,57.6
2018-06-30T07:21:21.552Z,57.6
2018-06-30T07:22:27.017Z,57.9
2018-06-30T07:23:29.875Z,56.6
2018-06-30T07:24:31.507Z,55.7
2018-06-30T07:25:33.296Z,55.8
2018-06-30T07:26:35.079Z,55.9
2018-06-30T07:27:36.888Z,56.1
2018-06-30T07:28:38.694Z,55.6
2018-06-30T07:29:40.427Z,54.1
2018-06-30T07:30:42.276Z,54.7
2018-06-30T07:31:44.107Z,55.7
2018-06-30T07:32:45.830Z,54.8
2018-06-30T07:33:47.559Z,55.2
2018-06-30T07:34:49.377Z,54.9
2018-06-30T07:35:51.057Z,55.2
2018-06-30T07:36:52.848Z,54.7
2018-06-30T07:37:54.686Z,55.4
2018-06-30T07:38:57.010Z,55.8
2018-06-30T07:39:58.752Z,56.8
2018-06-30T07:41:00.531Z,55.8
2018-06-30T07:42:02.953Z,54.4
2018-06-30T07:43:04.772Z,54.8
2018-06-30T07:44:08.058Z,54.0
2018-06-30T07:45:09.848Z,53.3
2018-06-30T07:46:13.338Z,53.6
2018-06-30T07:47:15.549Z,53.8
2018-06-30T07:48:17.202Z,53.4
2018-06-30T07:49:19.034Z,53.7
2018-06-30T07:50:20.832Z,54.5
2018-06-30T07:51:23.534Z,54.3
2018-06-30T07:52:25.301Z,53.3
2018-06-30T07:53:27.089Z,53.0
2018-06-30T07:54:28.988Z,51.9
2018-06-30T07:55:30.875Z,50.7
2018-06-30T07:56:32.739Z,49.6
2018-06-30T07:57:34.660Z,49.5
2018-06-30T07:58:37.490Z,49.4
2018-06-30T07:59:39.736Z,49.5
2018-06-30T08:00:41.559Z,48.8
2018-06-30T08:01:43.337Z,48.9
2018-06-30T08:02:45.629Z,49.4
2018-06-30T08:03:47.219Z,49.2
2018-06-30T08:04:49.816Z,49.7
2018-06-30T08:05:51.524Z,49.4
2018-06-30T08:06:53.478Z,50.2
2018-06-30T08:07:55.325Z,49.6
2018-06-30T08:08:57.134Z,50.5
2018-06-30T08:09:58.908Z,50.3
2018-06-30T08:11:00.760Z,49.9
2018-06-30T08:12:02.583Z,48.7
2018-06-30T08:13:04.437Z,48.7
2018-06-30T08:14:06.297Z,49.3
2018-06-30T08:15:08.065Z,49.5
2018-06-30T08:16:10.027Z,49.0
2018-06-30T08:17:11.886Z,46.9
2018-06-30T08:18:13.741Z,47.2
2018-06-30T08:19:16.051Z,48.9
2018-06-30T08:20:17.926Z,47.6
2018-06-30T08:21:19.916Z,47.0
2018-06-30T08:22:22.422Z,47.8
2018-06-30T08:23:24.220Z,48.4
2018-06-30T08:24:25.997Z,48.1
2018-06-30T08:25:27.895Z,49.3
2018-06-30T08:26:29.667Z,49.7
2018-06-30T08:27:31.451Z,50.8
2018-06-30T08:28:33.197Z,50.7
2018-06-30T08:29:36.316Z,50.8
2018-06-30T08:30:37.936Z,51.5
2018-06-30T08:31:40.267Z,50.0
2018-06-30T08:32:43.495Z,49.9
2018-06-30T08:33:45.175Z,49.3
2018-06-30T08:34:47.068Z,49.7
2018-06-30T08:35:48.906Z,46.6
2018-06-30T08:36:51.175Z,47.5
2018-06-30T08:37:54.276Z,47.7
2018-06-30T08:38:56.646Z,46.6
2018-06-30T08:39:58.424Z,46.6
2018-06-30T08:41:01.036Z,46.5
2018-06-30T08:42:02.809Z,46.0
2018-06-30T08:43:04.839Z,45.0
2018-06-30T08:44:06.697Z,44.7
2018-06-30T08:45:08.434Z,45.0
2018-06-30T08:46:10.978Z,45.4
2018-06-30T08:47:12.913Z,45.1
2018-06-30T08:48:17.546Z,45.6
2018-06-30T08:49:19.754Z,44.6
2018-06-30T08:50:21.612Z,44.4
2018-06-30T08:51:23.384Z,44.7
2018-06-30T08:52:25.272Z,44.0
2018-06-30T08:53:27.072Z,43.5
2018-06-30T08:54:28.969Z,44.2
2018-06-30T08:55:31.423Z,44.6
2018-06-30T08:56:33.352Z,44.2
2018-06-30T08:57:35.101Z,44.9
2018-06-30T08:58:36.859Z,45.3
2018-06-30T08:59:38.602Z,44.9
2018-06-30T09:00:40.403Z,44.5
2018-06-30T09:01:42.150Z,42.8
2018-06-30T09:02:43.969Z,43.1
2018-06-30T09:03:46.392Z,43.9
2018-06-30T09:04:48.118Z,43.0
2018-06-30T09:05:49.822Z,43.3
2018-06-30T09:06:51.650Z,44.5
2018-06-30T09:07:54.144Z,43.2
2018-06-30T09:08:57.270Z,43.3
2018-06-30T09:09:58.892Z,42.1
2018-06-30T09:11:01.218Z,41.1
2018-06-30T09:12:03.141Z,41.5
2018-06-30T09:13:04.833Z,40.6
2018-06-30T09:14:06.687Z,41.0
2018-06-30T09:15:08.474Z,39.1
2018-06-30T09:16:10.427Z,40.6
2018-06-30T09:17:12.151Z,39.0
2018-06-30T09:18:13.977Z,40.4
2018-06-30T09:19:15.813Z,41.0
2018-06-30T09:20:17.744Z,41.6
2018-06-30T09:21:20.720Z,40.8
2018-06-30T09:22:22.507Z,40.3
2018-06-30T09:23:25.045Z,40.3
2018-06-30T09:24:28.065Z,39.7
2018-06-30T09:25:32.416Z,41.0
2018-06-30T09:26:34.998Z,39.9
2018-06-30T09:27:36.781Z,40.5
2018-06-30T09:28:38.533Z,39.0
2018-06-30T09:29:40.528Z,38.4
2018-06-30T09:30:42.251Z,38.4
2018-06-30T09:31:44.173Z,37.3
2018-06-30T09:32:45.888Z,37.3
2018-06-30T09:33:47.781Z,36.9
2018-06-30T09:34:50.799Z,37.1
2018-06-30T09:35:52.723Z,38.1
2018-06-30T09:36:54.491Z,37.2
2018-06-30T09:37:56.465Z,37.9
2018-06-30T09:38:58.194Z,37.5
2018-06-30T09:40:00.109Z,35.3
2018-06-30T09:41:02.044Z,36.5
2018-06-30T09:42:03.930Z,35.7
2018-06-30T09:43:05.935Z,35.9
2018-06-30T09:44:07.715Z,36.5
2018-06-30T09:45:13.508Z,36.7
2018-06-30T09:46:15.421Z,37.5
2018-06-30T09:47:17.264Z,35.8
2018-06-30T09:48:19.084Z,35.4
2018-06-30T09:49:25.700Z,35.1
2018-06-30T09:50:27.490Z,36.3
2018-06-30T09:51:29.246Z,34.7
2018-06-30T09:52:31.088Z,35.8
2018-06-30T09:53:32.975Z,35.7
2018-06-30T09:54:36.364Z,35.2
2018-06-30T09:55:38.016Z,35.4
2018-06-30T09:56:39.872Z,35.7
2018-06-30T09:57:41.671Z,36.5
2018-06-30T09:58:43.469Z,35.8
2018-06-30T09:59:45.304Z,35.4
2018-06-30T10:00:47.131Z,35.7
2018-06-30T10:01:52.370Z,35.7
2018-06-30T10:02:54.192Z,34.0
2018-06-30T10:03:56.044Z,32.6
2018-06-30T10:04:57.829Z,33.3
2018-06-30T10:05:59.588Z,33.8
2018-06-30T10:07:01.417Z,33.3
2018-06-30T10:08:04.820Z,32.7
2018-06-30T10:09:06.519Z,33.4
2018-06-30T10:10:11.543Z,34.2
2018-06-30T10:11:16.348Z,34.7
2018-06-30T10:12:21.406Z,32.3
2018-06-30T10:13:27.409Z,31.8
2018-06-30T10:14:31.480Z,30.7
2018-06-30T10:15:33.168Z,30.2
2018-06-30T10:16:35.004Z,30.3
2018-06-30T10:17:36.815Z,30.5
2018-06-30T10:18:40.342Z,31.0
2018-06-30T10:19:42.266Z,30.6
2018-06-30T10:20:44.120Z,30.3
2018-06-30T10:21:46.093Z,31.2
2018-06-30T10:22:47.939Z,30.7
2018-06-30T10:23:51.938Z,30.6
2018-06-30T10:24:53.592Z,30.8
2018-06-30T10:25:55.417Z,31.2
2018-06-30T10:26:57.265Z,32.2
2018-06-30T10:28:01.890Z,31.4
2018-06-30T10:29:03.802Z,31.6
2018-06-30T10:30:08.831Z,31.5
2018-06-30T10:31:17.743Z,31.6
2018-06-30T10:32:19.605Z,31.7
2018-06-30T10:33:21.370Z,31.6
2018-06-30T10:34:23.201Z,30.8
2018-06-30T10:35:25.049Z,30.9
2018-06-30T10:36:26.916Z,30.5
2018-06-30T10:37:31.472Z,29.1
2018-06-30T10:38:33.298Z,28.8
2018-06-30T10:39:35.047Z,27.5
2018-06-30T10:40:37.006Z,28.2
2018-06-30T10:41:40.135Z,28.7
2018-06-30T10:42:42.020Z,28.4
